F1 Lap times 1st practice 2013 Monaco Grand Prix

Nico Rosberg in Monaco

Event: Monaco Grand Prix
Track: Circuit de Monaco

Weather: Dry
Track temperature: 30°C
Air temperature: 20°C
Wind Speed: 2.8 mps
Wind direction: South
Air Pressure: 1002.1 mBar
Humidity: 26%

Highest speed: 281 km/h Paul di Resta, Force India VJM06

FP1 Lap Times 2013 Monaco GP

Pos No Driver Team Lap Time 1st Gap Laps
1 9 Nico Rosberg Mercedes 1:16,195 31
2 3 Fernando Alonso Ferrari 1:16,282 0,087 27
3 8 Romain Grosjean Lotus F1 1:16,380 0,185 21
4 4 Felipe Massa Ferrari 1:16,394 0,199 23
5 10 Lewis Hamilton Mercedes 1:16,469 0,274 28
6 16 Pastor Maldonado Williams 1:16,993 0,798 27
7 2 Mark Webber Red Bull 1:17,020 0,825 27
8 5 Jenson Button McLaren 1:17,129 0,934 29
9 6 Sergio Pérez McLaren 1:17,378 1,183 25
10 1 Sebastian Vettel Red Bull 1:17,380 1,185 23
11 7 Kimi Räikkönen Lotus F1 1:17,509 1,314 26
12 14 Paul di Resta Force India 1:17,548 1,353 27
13 15 Adrian Sutil Force India 1:17,625 1,430 20
14 11 Nico Hülkenberg Sauber 1:18,193 1,998 26
15 18 Jean-Eric Vergne Toro Rosso 1:18,454 2,259 25
16 12 Esteban Gutierrez Sauber 1:18,754 2,559 28
17 17 Valtteri Bottas Williams 1:18,830 2,635 28
18 19 Daniel Ricciardo Toro Rosso 1:19,067 2,872 0
19 21 Giedo van der Garde Caterham 1:19,203 3,008 0
20 20 Charles Pic Caterham 1:19,438 3,243 0
21 22 Jules Bianchi Manor 1:19,773 3,578 0
22 23 Max Chilton Manor 1:20,225 4,030 0


✅ Check out more posts with related topics:

What's your F1 fan opinion?

Your email address will not be published. Required fields are marked *

Please follow our commenting guidelines.